Time;durP1;ratioP1;P1;durP2;ratioP2;P2;SDS_P1;SDS_P2;PMS_P1;PMS_P2;Temp;Humidity;BMP_temperature;BMP_pressure;BME280_temperature;BME280_humidity;BME280_pressure;Samples;Min_cycle;Max_cycle;Signal;HPM_P1;HPM_P2
2024/01/27 00:01:35;;;;;;;6.70;6.10;;;8.60;20.90;;;;;;6309134;22;20184;-80
2024/01/27 00:04:01;;;;;;;6.90;6.30;;;8.50;20.90;;;;;;6310473;22;20413;-81
2024/01/27 00:06:27;;;;;;;6.60;6.03;;;8.40;21.70;;;;;;6309360;22;20416;-81
2024/01/27 00:08:52;;;;;;;6.27;5.80;;;8.20;22.00;;;;;;6308461;22;20372;-79
2024/01/27 00:11:19;;;;;;;7.10;6.43;;;8.20;22.50;;;;;;6309928;22;20239;-80
2024/01/27 00:13:45;;;;;;;6.27;5.80;;;8.20;22.80;;;;;;6284262;22;20615;-81
2024/01/27 00:16:11;;;;;;;5.60;5.10;;;8.50;21.90;;;;;;6309995;22;20455;-79
2024/01/27 00:18:38;;;;;;;5.50;5.20;;;8.70;21.00;;;;;;6282780;22;20721;-81
2024/01/27 00:21:10;;;;;;;6.03;5.53;;;8.90;20.60;;;;;;6282667;22;20192;-82
2024/01/27 00:23:38;;;;;;;5.13;4.87;;;9.10;20.20;;;;;;6282206;22;20391;-80
2024/01/27 00:26:05;;;;;;;6.40;5.87;;;9.20;19.90;;;;;;6307976;22;20941;-81
2024/01/27 00:28:31;;;;;;;6.40;5.80;;;9.30;19.70;;;;;;6283028;22;20383;-81
2024/01/27 00:31:00;;;;;;;6.23;5.73;;;9.40;19.30;;;;;;6281628;22;20458;-80
2024/01/27 00:33:32;;;;;;;5.53;5.17;;;9.40;19.10;;;;;;6279322;22;20384;-78
2024/01/27 00:36:00;;;;;;;5.80;5.40;;;9.50;18.80;;;;;;6280435;22;20388;-79
2024/01/27 00:38:27;;;;;;;5.83;5.50;;;9.50;19.00;;;;;;6282300;22;20392;-80
2024/01/27 00:40:53;;;;;;;6.00;5.50;;;9.50;18.60;;;;;;6282786;22;20687;-79
2024/01/27 00:43:22;;;;;;;5.50;5.23;;;9.50;18.60;;;;;;6308358;22;20874;-80
2024/01/27 00:45:49;;;;;;;6.17;5.63;;;9.50;18.30;;;;;;6309796;22;20423;-80
2024/01/27 00:48:21;;;;;;;6.00;5.70;;;9.50;18.50;;;;;;6309364;22;20381;-80
2024/01/27 00:50:51;;;;;;;6.40;5.53;;;9.50;18.30;;;;;;6310739;22;20135;-81
2024/01/27 00:53:22;;;;;;;5.43;5.03;;;9.50;18.20;;;;;;6311263;22;20360;-81
2024/01/27 00:55:50;;;;;;;5.57;5.27;;;9.50;18.40;;;;;;6309301;22;20433;-79
2024/01/27 00:58:17;;;;;;;5.77;5.33;;;9.40;18.60;;;;;;6282813;22;20384;-78
2024/01/27 01:00:43;;;;;;;6.90;6.40;;;9.20;19.10;;;;;;6283038;22;20388;-78
2024/01/27 01:03:10;;;;;;;6.60;6.03;;;8.90;19.80;;;;;;6281361;22;20426;-78
2024/01/27 01:05:36;;;;;;;6.40;5.80;;;8.90;19.90;;;;;;6307493;22;20420;-79
2024/01/27 01:08:03;;;;;;;5.73;5.43;;;8.80;20.10;;;;;;6283351;22;20381;-79
2024/01/27 01:10:32;;;;;;;6.03;5.67;;;8.80;20.70;;;;;;6307906;22;20862;-79
2024/01/27 01:13:07;;;;;;;6.50;6.10;;;8.90;19.70;;;;;;6294891;22;20900;-80
2024/01/27 01:15:36;;;;;;;6.03;5.63;;;9.10;19.30;;;;;;6275274;22;20403;-79
2024/01/27 01:18:03;;;;;;;6.60;5.57;;;9.10;19.10;;;;;;6281691;22;20392;-80
2024/01/27 01:20:30;;;;;;;5.20;4.90;;;9.10;18.80;;;;;;6280569;22;20388;-79
2024/01/27 01:22:57;;;;;;;6.37;6.00;;;9.10;18.90;;;;;;6281640;22;20905;-79
2024/01/27 01:25:24;;;;;;;6.60;5.80;;;9.10;18.70;;;;;;6308222;22;20416;-79
2024/01/27 01:27:50;;;;;;;5.73;5.33;;;9.10;19.20;;;;;;6231006;22;20448;-80
2024/01/27 01:30:17;;;;;;;6.13;5.63;;;9.10;18.40;;;;;;6307946;22;20384;-81
2024/01/27 01:32:44;;;;;;;6.50;6.00;;;9.20;18.20;;;;;;6308081;22;20185;-80
2024/01/27 01:35:16;;;;;;;6.90;5.93;;;9.00;18.80;;;;;;6249313;22;20815;-81
2024/01/27 01:37:48;;;;;;;6.23;5.87;;;8.70;19.60;;;;;;6251309;22;20476;-80
2024/01/27 01:40:16;;;;;;;6.73;6.23;;;8.50;20.20;;;;;;6312439;22;20404;-80
2024/01/27 01:42:43;;;;;;;7.13;6.73;;;8.40;20.30;;;;;;6285055;22;20404;-79
2024/01/27 01:45:12;;;;;;;6.53;5.90;;;8.10;21.00;;;;;;6310321;22;20369;-79
2024/01/27 01:47:41;;;;;;;6.23;5.87;;;7.70;22.00;;;;;;6284653;22;20391;-79
2024/01/27 01:50:08;;;;;;;6.17;5.77;;;7.40;22.30;;;;;;6310105;22;20426;-81
2024/01/27 01:52:34;;;;;;;6.40;5.90;;;7.10;23.20;;;;;;6284959;22;20415;-82
2024/01/27 01:55:00;;;;;;;7.40;6.17;;;7.00;23.60;;;;;;6281409;22;20368;-78
2024/01/27 01:57:29;;;;;;;6.13;5.73;;;7.10;23.70;;;;;;6308850;22;20877;-80
2024/01/27 01:59:55;;;;;;;6.37;5.87;;;7.30;23.20;;;;;;6256395;22;20848;-79
2024/01/27 02:02:25;;;;;;;6.27;5.67;;;7.50;22.80;;;;;;6308508;22;20389;-80
2024/01/27 02:04:52;;;;;;;6.07;5.70;;;7.80;22.60;;;;;;6280472;22;20385;-80
2024/01/27 02:07:19;;;;;;;6.67;6.30;;;8.00;22.00;;;;;;6281086;22;20934;-80
2024/01/27 02:09:48;;;;;;;6.07;5.50;;;8.10;21.20;;;;;;6265145;22;20424;-80
2024/01/27 02:12:14;;;;;;;6.67;6.27;;;7.90;21.30;;;;;;6285350;22;20472;-78
2024/01/27 02:14:41;;;;;;;6.37;5.87;;;7.70;22.00;;;;;;6315644;22;20387;-78
2024/01/27 02:17:07;;;;;;;5.40;5.10;;;7.50;22.40;;;;;;6264192;22;20496;-79
2024/01/27 02:19:36;;;;;;;6.80;6.30;;;7.60;22.40;;;;;;6314418;22;20395;-78
2024/01/27 02:22:02;;;;;;;6.90;6.30;;;7.90;22.60;;;;;;6287726;22;20408;-77
2024/01/27 02:24:28;;;;;;;6.50;6.00;;;8.10;21.70;;;;;;6282408;22;20387;-79
2024/01/27 02:26:55;;;;;;;6.70;6.10;;;8.20;21.10;;;;;;6281915;22;20428;-80
2024/01/27 02:29:22;;;;;;;6.87;5.50;;;8.30;20.60;;;;;;6282004;22;20866;-80
2024/01/27 02:31:53;;;;;;;6.10;5.70;;;8.40;20.00;;;;;;6309652;22;20752;-80
2024/01/27 02:34:20;;;;;;;6.53;6.07;;;8.40;20.10;;;;;;6281247;22;20399;-80
2024/01/27 02:36:46;;;;;;;6.10;5.70;;;8.40;20.20;;;;;;6282133;22;20380;-80
2024/01/27 02:39:13;;;;;;;7.43;6.73;;;8.30;20.10;;;;;;6281111;22;20405;-78
2024/01/27 02:41:39;;;;;;;6.27;5.90;;;8.20;20.50;;;;;;6280556;22;20223;-80
2024/01/27 02:44:06;;;;;;;6.53;6.07;;;7.90;20.80;;;;;;6280598;22;20464;-78
2024/01/27 02:46:32;;;;;;;6.80;6.30;;;7.70;21.40;;;;;;6281002;22;20482;-81
2024/01/27 02:48:58;;;;;;;6.20;5.60;;;7.50;22.30;;;;;;6256137;22;20974;-79
2024/01/27 02:51:24;;;;;;;6.33;5.73;;;7.30;22.20;;;;;;6280831;22;20393;-80
2024/01/27 02:53:50;;;;;;;9.20;5.90;;;7.30;22.40;;;;;;6308154;22;20372;-80
2024/01/27 02:56:17;;;;;;;6.50;5.73;;;7.50;22.40;;;;;;6231875;22;20196;-81
2024/01/27 02:58:48;;;;;;;6.07;5.60;;;7.70;21.80;;;;;;6308919;22;20723;-81
2024/01/27 03:01:20;;;;;;;6.17;5.70;;;8.00;21.30;;;;;;6256981;22;20412;-80
2024/01/27 03:03:49;;;;;;;6.63;6.03;;;8.20;20.80;;;;;;6309219;22;20880;-79
2024/01/27 03:06:18;;;;;;;6.50;5.90;;;8.40;20.30;;;;;;6282331;22;20792;-79
2024/01/27 03:08:44;;;;;;;7.83;6.20;;;8.40;20.00;;;;;;6254679;22;20427;-79
2024/01/27 03:11:13;;;;;;;7.27;6.57;;;8.30;19.80;;;;;;6310595;22;20389;-79
2024/01/27 03:13:44;;;;;;;7.00;6.40;;;8.30;20.10;;;;;;6256991;22;20380;-80
2024/01/27 03:16:10;;;;;;;6.43;6.07;;;8.20;20.10;;;;;;6310251;22;20353;-81
2024/01/27 03:18:37;;;;;;;6.83;6.23;;;8.00;20.10;;;;;;6282702;22;20472;-81
2024/01/27 03:21:03;;;;;;;7.00;6.30;;;7.70;21.20;;;;;;6308669;22;20434;-81
2024/01/27 03:23:28;;;;;;;7.57;6.90;;;7.50;21.40;;;;;;6277625;22;20391;-81
2024/01/27 03:25:54;;;;;;;10.13;7.10;;;7.40;22.30;;;;;;6270247;22;20428;-81
2024/01/27 03:28:20;;;;;;;8.07;7.37;;;7.30;21.80;;;;;;6299606;22;20150;-81
2024/01/27 03:30:46;;;;;;;7.37;6.67;;;7.10;22.10;;;;;;6308258;22;20368;-80
2024/01/27 03:33:12;;;;;;;7.53;6.83;;;7.20;22.80;;;;;;6280918;22;20999;-81
2024/01/27 03:35:39;;;;;;;7.13;6.63;;;7.30;22.20;;;;;;6308683;22;20150;-80
2024/01/27 03:38:05;;;;;;;8.97;7.90;;;7.50;22.40;;;;;;6284540;22;20873;-77
2024/01/27 03:40:31;;;;;;;6.53;6.03;;;7.40;22.20;;;;;;6284941;22;20384;-77
2024/01/27 03:42:57;;;;;;;6.57;6.20;;;7.20;22.20;;;;;;6309055;22;20461;-79
2024/01/27 03:45:22;;;;;;;7.57;6.70;;;7.00;22.50;;;;;;6306960;22;20185;-80
2024/01/27 03:47:48;;;;;;;7.80;7.10;;;6.80;23.40;;;;;;6307632;22;20154;-80
2024/01/27 03:50:14;;;;;;;7.67;7.03;;;6.60;24.10;;;;;;6279831;22;20146;-80
2024/01/27 03:52:41;;;;;;;7.60;6.80;;;6.30;24.50;;;;;;6305882;22;20170;-78
2024/01/27 03:55:08;;;;;;;7.73;7.03;;;6.30;25.10;;;;;;6279330;22;20434;-77
2024/01/27 03:57:33;;;;;;;7.70;7.10;;;6.20;25.00;;;;;;6280028;22;20381;-79
2024/01/27 03:59:59;;;;;;;7.57;6.80;;;6.20;25.00;;;;;;6306911;22;20406;-79
2024/01/27 04:02:24;;;;;;;7.37;6.87;;;6.00;25.50;;;;;;6279550;22;20176;-79
2024/01/27 04:04:50;;;;;;;6.97;6.57;;;6.00;25.70;;;;;;6307734;22;20192;-79
2024/01/27 04:07:18;;;;;;;6.83;6.50;;;6.10;25.50;;;;;;6308885;22;20206;-79
2024/01/27 04:09:43;;;;;;;7.23;6.80;;;6.20;25.40;;;;;;6255310;22;20858;-80
2024/01/27 04:12:19;;;;;;;8.07;7.30;;;6.30;25.20;;;;;;6278085;22;20450;-78
2024/01/27 04:14:50;;;;;;;7.83;7.20;;;6.30;25.30;;;;;;6278779;22;20383;-78
2024/01/27 04:17:17;;;;;;;7.10;6.70;;;6.30;25.10;;;;;;6279464;22;20842;-78
2024/01/27 04:19:43;;;;;;;9.20;8.00;;;6.40;25.00;;;;;;6284137;22;20726;-81
2024/01/27 04:22:09;;;;;;;7.80;7.20;;;6.50;24.60;;;;;;6287794;22;20455;-82
2024/01/27 04:24:35;;;;;;;8.10;7.50;;;6.60;24.50;;;;;;6285239;22;20448;-81
2024/01/27 04:27:04;;;;;;;7.70;7.20;;;6.90;24.60;;;;;;6287100;22;20423;-79
2024/01/27 04:29:49;;;;;;;8.07;7.57;;;7.30;23.40;;;;;;6314861;22;20384;-80
2024/01/27 04:32:16;;;;;;;7.60;7.00;;;7.60;22.40;;;;;;6310287;22;21024;-78
2024/01/27 04:34:42;;;;;;;7.40;7.00;;;7.80;21.70;;;;;;6311762;22;20372;-79
2024/01/27 04:37:08;;;;;;;6.53;6.13;;;7.90;20.80;;;;;;6258017;22;20389;-81
2024/01/27 04:39:34;;;;;;;7.43;6.77;;;7.70;21.40;;;;;;6308868;22;20373;-81
2024/01/27 04:41:59;;;;;;;7.53;6.93;;;7.60;21.00;;;;;;6282581;22;20180;-79
2024/01/27 04:44:25;;;;;;;7.83;6.50;;;7.30;21.80;;;;;;6282578;22;20184;-80
2024/01/27 04:46:50;;;;;;;7.43;6.83;;;7.30;21.90;;;;;;6282924;22;20555;-80
2024/01/27 04:49:16;;;;;;;7.20;6.53;;;7.30;22.00;;;;;;6312792;22;20146;-79
2024/01/27 04:51:41;;;;;;;6.83;6.30;;;7.20;22.10;;;;;;6283644;22;20219;-80
2024/01/27 04:54:08;;;;;;;7.37;6.57;;;7.20;22.20;;;;;;6313008;22;20154;-80
2024/01/27 04:56:34;;;;;;;7.67;7.07;;;7.20;22.20;;;;;;6314094;22;20154;-78
2024/01/27 04:58:59;;;;;;;8.57;6.90;;;6.80;22.10;;;;;;6320028;22;20855;-80
2024/01/27 05:01:25;;;;;;;7.60;7.00;;;6.50;23.10;;;;;;6316955;22;20487;-80
2024/01/27 05:03:50;;;;;;;7.50;6.80;;;6.40;23.60;;;;;;6315707;22;20168;-78
2024/01/27 05:06:17;;;;;;;7.50;6.90;;;6.30;23.90;;;;;;6291488;22;20199;-79
2024/01/27 05:08:42;;;;;;;8.53;6.80;;;6.20;24.40;;;;;;6291267;22;20776;-78
2024/01/27 05:11:09;;;;;;;8.20;7.50;;;6.00;24.60;;;;;;6287235;22;20392;-80
2024/01/27 05:13:34;;;;;;;8.07;6.80;;;6.00;24.80;;;;;;6314093;22;20142;-79
2024/01/27 05:16:00;;;;;;;8.23;7.50;;;6.10;24.80;;;;;;6312064;22;20384;-79
2024/01/27 05:18:26;;;;;;;6.80;6.50;;;6.30;24.60;;;;;;6288474;22;20150;-81
2024/01/27 05:20:51;;;;;;;8.07;7.10;;;6.20;24.40;;;;;;6286362;22;20384;-80
2024/01/27 05:23:17;;;;;;;7.90;7.20;;;6.20;25.20;;;;;;6314929;22;20487;-79
2024/01/27 05:25:43;;;;;;;7.37;6.97;;;6.10;25.00;;;;;;6291744;22;20233;-79
2024/01/27 05:28:08;;;;;;;8.87;8.03;;;6.20;24.90;;;;;;6289903;22;20161;-81
2024/01/27 05:30:34;;;;;;;8.00;7.47;;;6.10;24.60;;;;;;6311852;22;20138;-80
2024/01/27 05:33:00;;;;;;;8.23;7.70;;;6.00;25.00;;;;;;6314442;22;20188;-79
2024/01/27 05:35:25;;;;;;;7.97;7.37;;;5.80;25.20;;;;;;6312464;22;20150;-80
2024/01/27 05:37:51;;;;;;;7.97;6.90;;;5.70;25.70;;;;;;6312995;22;20169;-80
2024/01/27 05:40:17;;;;;;;8.60;7.90;;;5.60;25.80;;;;;;6315201;22;20162;-80
2024/01/27 05:42:44;;;;;;;6.63;6.33;;;5.50;26.20;;;;;;6313341;22;20808;-81
2024/01/27 05:45:10;;;;;;;8.07;7.47;;;5.60;26.30;;;;;;6285422;22;20154;-80
2024/01/27 05:47:36;;;;;;;7.57;6.97;;;5.80;25.80;;;;;;6286565;22;20491;-78
2024/01/27 05:50:02;;;;;;;7.80;7.10;;;6.00;25.60;;;;;;6313388;22;20425;-80
2024/01/27 05:52:28;;;;;;;7.07;6.57;;;6.30;24.60;;;;;;6312836;22;20170;-79
2024/01/27 05:54:54;;;;;;;7.47;6.77;;;6.40;24.50;;;;;;6285474;22;20391;-78
2024/01/27 05:57:20;;;;;;;11.13;7.70;;;6.60;24.30;;;;;;6287331;22;20154;-78
2024/01/27 05:59:45;;;;;;;7.43;6.83;;;6.70;23.20;;;;;;6312878;22;20437;-79
2024/01/27 06:02:11;;;;;;;8.57;7.40;;;6.50;23.20;;;;;;6316095;22;20396;-80
2024/01/27 06:04:36;;;;;;;7.10;6.50;;;6.50;23.30;;;;;;6289702;22;20160;-77
2024/01/27 06:07:02;;;;;;;7.20;6.60;;;6.50;23.80;;;;;;6307617;22;20201;-77
2024/01/27 06:09:28;;;;;;;7.60;7.10;;;6.80;23.30;;;;;;6334747;22;20157;-77
2024/01/27 06:11:53;;;;;;;8.07;7.43;;;7.10;22.10;;;;;;6334615;22;20181;-77
2024/01/27 06:14:19;;;;;;;8.00;7.37;;;7.30;22.20;;;;;;6333016;22;20172;-78
2024/01/27 06:16:44;;;;;;;8.53;7.63;;;7.50;21.20;;;;;;6296760;22;20154;-78
2024/01/27 06:19:10;;;;;;;8.47;7.87;;;7.60;20.80;;;;;;6314734;22;20535;-78
2024/01/27 06:21:36;;;;;;;7.93;7.33;;;7.70;20.70;;;;;;6292444;22;20174;-78
2024/01/27 06:24:01;;;;;;;8.67;8.07;;;7.70;20.70;;;;;;6295852;22;20150;-79
2024/01/27 06:26:27;;;;;;;9.63;8.50;;;7.80;20.60;;;;;;6316516;22;20188;-79
2024/01/27 06:28:53;;;;;;;8.57;8.00;;;7.80;20.50;;;;;;6311890;22;20377;-78
2024/01/27 06:31:18;;;;;;;8.60;8.10;;;7.80;20.50;;;;;;6311800;22;20165;-78
2024/01/27 06:33:44;;;;;;;8.43;7.90;;;7.90;20.60;;;;;;6312035;22;20533;-78
2024/01/27 06:36:09;;;;;;;7.90;7.30;;;7.80;20.70;;;;;;6309091;22;20150;-78
2024/01/27 06:38:45;;;;;;;8.80;8.00;;;7.80;20.80;;;;;;6307800;22;20150;-83
2024/01/27 06:42:08;;;;;;;;;;;;;;;;;;;;;
2024/01/27 06:47:49;;;;;;;9.03;8.33;;;6.80;22.40;;;;;;6093201;23;20407;-83
2024/01/27 06:52:52;;;;;;;9.07;8.37;;;6.50;23.80;;;;;;6307785;22;20436;-79
2024/01/27 06:55:19;;;;;;;8.63;7.83;;;6.40;24.90;;;;;;6289006;22;20368;-81
2024/01/27 06:58:08;;;;;;;9.10;8.43;;;6.30;24.20;;;;;;6290623;22;20372;-80
2024/01/27 07:00:54;;;;;;;8.83;7.83;;;6.10;24.50;;;;;;6316646;22;20438;-82
2024/01/27 07:03:21;;;;;;;9.37;8.70;;;5.90;24.80;;;;;;6289950;22;20397;-81
2024/01/27 07:05:47;;;;;;;9.93;9.20;;;5.90;25.50;;;;;;6262485;22;20435;-81
2024/01/27 07:08:13;;;;;;;11.60;8.90;;;5.90;25.30;;;;;;6288924;22;20383;-80
2024/01/27 07:10:38;;;;;;;9.90;9.20;;;6.00;25.30;;;;;;6292023;22;20147;-82
2024/01/27 07:13:06;;;;;;;9.40;8.80;;;5.90;25.10;;;;;;6285589;22;20262;-78
2024/01/27 07:15:31;;;;;;;10.50;9.57;;;5.70;25.40;;;;;;6286684;22;20656;-78
2024/01/27 07:17:57;;;;;;;11.50;10.30;;;5.60;26.10;;;;;;6292105;22;20384;-82
2024/01/27 07:20:28;;;;;;;10.30;9.47;;;5.60;26.20;;;;;;6320634;22;20161;-79
2024/01/27 07:22:54;;;;;;;10.23;9.33;;;5.70;26.00;;;;;;6295907;22;20173;-80
2024/01/27 07:25:19;;;;;;;9.70;9.10;;;5.70;26.00;;;;;;6293881;22;20463;-80
2024/01/27 07:27:46;;;;;;;10.63;9.73;;;5.70;26.00;;;;;;6286792;22;20568;-79
2024/01/27 07:30:12;;;;;;;10.00;9.07;;;5.80;25.60;;;;;;6285495;22;20588;-78
2024/01/27 07:32:37;;;;;;;9.10;8.50;;;6.00;25.50;;;;;;6311211;22;20407;-80
2024/01/27 07:35:05;;;;;;;8.90;8.40;;;6.20;25.30;;;;;;6282406;22;21048;-78
2024/01/27 07:37:31;;;;;;;8.80;8.20;;;6.00;25.40;;;;;;6310606;22;20161;-80
2024/01/27 07:39:56;;;;;;;10.30;9.60;;;5.80;26.80;;;;;;6312480;22;20369;-78
2024/01/27 07:42:22;;;;;;;9.77;8.90;;;6.10;27.00;;;;;;6314790;22;20166;-79
2024/01/27 07:44:49;;;;;;;8.40;7.70;;;6.50;26.80;;;;;;6312475;22;20170;-79
2024/01/27 07:47:15;;;;;;;9.00;8.50;;;6.80;25.50;;;;;;6286954;22;20420;-80
2024/01/27 07:49:41;;;;;;;8.83;8.27;;;7.00;23.80;;;;;;6287768;22;20419;-79
2024/01/27 07:52:08;;;;;;;10.00;9.10;;;7.20;23.10;;;;;;6287990;22;20168;-79
2024/01/27 07:54:38;;;;;;;9.13;8.53;;;7.30;22.20;;;;;;6287999;22;20423;-81
2024/01/27 07:57:17;;;;;;;8.27;7.77;;;7.50;22.10;;;;;;6262979;22;20381;-83
2024/01/27 07:59:44;;;;;;;9.53;8.93;;;7.60;21.80;;;;;;6310020;22;20427;-78
2024/01/27 08:02:09;;;;;;;10.03;9.33;;;7.60;21.50;;;;;;6309950;22;20372;-79
2024/01/27 08:04:35;;;;;;;9.07;8.47;;;7.70;21.10;;;;;;6312312;22;20174;-82
2024/01/27 08:07:06;;;;;;;9.27;8.67;;;7.70;20.90;;;;;;6312244;22;20242;-80
2024/01/27 08:09:31;;;;;;;8.97;8.23;;;7.60;20.50;;;;;;6286972;22;20149;-82
2024/01/27 08:11:57;;;;;;;9.03;8.43;;;7.70;21.10;;;;;;6289900;22;20404;-80
2024/01/27 08:14:25;;;;;;;7.93;7.43;;;7.70;20.40;;;;;;6296360;22;20178;-79
2024/01/27 08:16:50;;;;;;;9.63;8.67;;;7.80;20.30;;;;;;6300249;22;20154;-81
2024/01/27 08:19:20;;;;;;;9.67;8.97;;;7.80;20.50;;;;;;6294873;22;20433;-75
2024/01/27 08:21:46;;;;;;;9.00;8.30;;;7.80;20.20;;;;;;6308613;22;20231;-78
2024/01/27 08:24:13;;;;;;;10.47;9.43;;;7.70;20.10;;;;;;6335503;22;20388;-76
2024/01/27 08:26:48;;;;;;;9.17;8.43;;;7.50;20.50;;;;;;6307167;22;20444;-78
2024/01/27 08:29:15;;;;;;;10.63;9.73;;;7.40;21.00;;;;;;6325993;22;20365;-78
2024/01/27 08:31:42;;;;;;;9.63;9.00;;;7.50;20.80;;;;;;6280961;22;20419;-78
2024/01/27 08:34:08;;;;;;;10.10;9.40;;;7.60;20.70;;;;;;6256905;22;20405;-79
2024/01/27 08:36:35;;;;;;;9.77;9.27;;;7.60;20.70;;;;;;6282309;22;20770;-79
2024/01/27 08:39:01;;;;;;;10.87;10.17;;;7.60;20.70;;;;;;6283002;22;20722;-80
2024/01/27 08:41:26;;;;;;;10.80;10.30;;;7.60;20.70;;;;;;6310230;22;20360;-81
2024/01/27 08:43:52;;;;;;;10.30;9.60;;;7.60;20.40;;;;;;6282842;22;20178;-81
2024/01/27 08:46:22;;;;;;;9.97;9.20;;;7.40;20.60;;;;;;6288988;22;20571;-79
2024/01/27 08:48:48;;;;;;;10.70;10.10;;;7.30;20.50;;;;;;6313957;22;20153;-78
2024/01/27 08:51:16;;;;;;;11.47;10.67;;;7.10;21.30;;;;;;6281210;22;20377;-77
2024/01/27 08:53:48;;;;;;;11.60;10.90;;;6.80;21.90;;;;;;6279874;22;20760;-80
2024/01/27 08:56:20;;;;;;;11.10;10.20;;;6.60;22.40;;;;;;6286165;22;20369;-75
2024/01/27 08:58:47;;;;;;;10.53;9.83;;;6.60;23.50;;;;;;6289192;22;20402;-75
2024/01/27 09:01:15;;;;;;;11.77;10.83;;;6.70;23.10;;;;;;6286188;22;20383;-78
2024/01/27 09:03:42;;;;;;;11.03;10.03;;;6.80;23.20;;;;;;6287601;22;20400;-78
2024/01/27 09:06:10;;;;;;;10.97;10.27;;;6.90;22.80;;;;;;6298222;22;20424;-77
2024/01/27 09:08:36;;;;;;;11.83;10.97;;;7.10;22.40;;;;;;6295416;22;20388;-77
2024/01/27 09:11:03;;;;;;;11.03;10.33;;;7.30;22.30;;;;;;6289892;22;20384;-79
2024/01/27 09:13:34;;;;;;;10.67;9.97;;;7.00;22.50;;;;;;6262846;22;20484;-80
2024/01/27 09:16:01;;;;;;;11.10;10.30;;;7.00;22.80;;;;;;6287159;22;20441;-82
2024/01/27 09:18:29;;;;;;;11.87;11.07;;;7.00;22.50;;;;;;6286684;22;20522;-79
2024/01/27 09:20:55;;;;;;;10.70;9.80;;;7.00;22.80;;;;;;6284933;22;20380;-80
2024/01/27 09:23:21;;;;;;;11.03;10.20;;;6.90;23.00;;;;;;6286934;22;20185;-80
2024/01/27 09:25:46;;;;;;;11.00;9.20;;;7.00;23.00;;;;;;6316103;22;20453;-77
2024/01/27 09:28:14;;;;;;;11.43;10.50;;;7.10;22.90;;;;;;6287209;22;20453;-79
2024/01/27 09:30:39;;;;;;;11.00;10.03;;;7.00;22.60;;;;;;6286658;22;20154;-78
2024/01/27 09:33:06;;;;;;;9.67;8.90;;;7.00;23.20;;;;;;6285291;22;20869;-80
2024/01/27 09:35:31;;;;;;;12.00;10.80;;;7.20;22.90;;;;;;6314091;22;20454;-81
2024/01/27 09:37:57;;;;;;;10.83;10.00;;;7.10;22.70;;;;;;6287839;22;20241;-79
2024/01/27 09:40:22;;;;;;;11.27;10.47;;;7.20;22.20;;;;;;6288120;22;20154;-79
2024/01/27 09:42:55;;;;;;;11.83;9.80;;;7.30;22.20;;;;;;6286664;22;20160;-81
2024/01/27 09:45:23;;;;;;;9.67;9.17;;;7.20;22.20;;;;;;6312919;22;20223;-82
2024/01/27 09:47:49;;;;;;;10.27;9.57;;;7.30;22.20;;;;;;6286002;22;20376;-80
2024/01/27 09:50:17;;;;;;;11.10;10.30;;;7.30;22.20;;;;;;6285251;22;20380;-79
2024/01/27 09:52:44;;;;;;;11.70;10.70;;;7.40;22.30;;;;;;6313653;22;20858;-80
2024/01/27 09:55:09;;;;;;;9.90;9.20;;;7.60;22.40;;;;;;6287775;22;20396;-80
2024/01/27 09:57:39;;;;;;;11.07;10.17;;;7.70;21.80;;;;;;6315777;22;20871;-79
2024/01/27 10:00:09;;;;;;;11.13;10.33;;;7.80;21.90;;;;;;6287089;22;20176;-80
2024/01/27 10:02:35;;;;;;;10.80;9.90;;;7.70;22.00;;;;;;6287090;22;20380;-79
2024/01/27 10:05:02;;;;;;;9.80;9.00;;;7.70;22.50;;;;;;6313248;22;20404;-80
2024/01/27 10:07:28;;;;;;;10.33;9.63;;;7.60;22.40;;;;;;6284989;22;20420;-82
2024/01/27 10:09:53;;;;;;;11.83;10.60;;;7.50;22.30;;;;;;6313647;22;20909;-80
2024/01/27 10:12:22;;;;;;;12.20;10.53;;;7.70;22.40;;;;;;6284023;22;20150;-79
2024/01/27 10:14:48;;;;;;;12.30;11.03;;;7.70;21.70;;;;;;6284810;22;20643;-81
2024/01/27 10:17:26;;;;;;;13.50;9.90;;;7.80;21.60;;;;;;6285824;22;20411;-79
2024/01/27 10:20:03;;;;;;;13.60;10.77;;;7.90;21.40;;;;;;6311672;22;20360;-79
2024/01/27 10:22:29;;;;;;;13.10;9.83;;;7.70;21.20;;;;;;6312063;22;20368;-78
2024/01/27 10:24:55;;;;;;;10.97;10.07;;;7.70;21.10;;;;;;6283752;22;20406;-79
2024/01/27 10:27:21;;;;;;;11.20;10.30;;;7.70;21.20;;;;;;6312125;22;20169;-79
2024/01/27 10:29:54;;;;;;;9.77;9.03;;;7.70;21.70;;;;;;6286379;22;20521;-78
2024/01/27 10:32:20;;;;;;;11.20;10.10;;;7.80;21.20;;;;;;6314157;22;20142;-79
2024/01/27 10:34:46;;;;;;;10.57;9.57;;;7.80;21.00;;;;;;6282829;22;20413;-75
2024/01/27 10:37:14;;;;;;;11.40;10.40;;;7.80;21.10;;;;;;6286067;22;20391;-80
2024/01/27 10:39:41;;;;;;;10.73;9.80;;;8.10;20.60;;;;;;6287078;22;20150;-80
2024/01/27 10:42:09;;;;;;;11.20;10.40;;;8.20;20.30;;;;;;6289192;22;20384;-80
2024/01/27 10:44:38;;;;;;;10.00;9.43;;;8.20;20.30;;;;;;6317948;22;20392;-78
2024/01/27 10:47:06;;;;;;;10.67;9.83;;;8.20;20.30;;;;;;6319295;22;20526;-79
2024/01/27 10:49:36;;;;;;;11.20;10.40;;;8.30;20.20;;;;;;6313737;22;20373;-81
2024/01/27 10:52:05;;;;;;;10.70;9.80;;;8.40;19.60;;;;;;6291811;22;20367;-78
2024/01/27 10:54:33;;;;;;;10.80;9.67;;;8.40;19.40;;;;;;6321889;22;20415;-78
2024/01/27 10:57:01;;;;;;;12.20;9.67;;;8.40;19.60;;;;;;6292029;22;20396;-78
2024/01/27 10:59:28;;;;;;;11.00;10.10;;;8.50;20.10;;;;;;6315888;22;20376;-78
2024/01/27 11:01:54;;;;;;;11.07;10.37;;;8.60;19.40;;;;;;6314627;22;20380;-78
2024/01/27 11:04:21;;;;;;;13.37;12.17;;;8.60;20.00;;;;;;6313125;22;20905;-79
2024/01/27 11:06:50;;;;;;;11.50;10.90;;;8.60;20.40;;;;;;6288541;22;20420;-80
2024/01/27 11:09:17;;;;;;;12.10;11.10;;;8.50;20.70;;;;;;6287076;22;20373;-79
2024/01/27 11:11:44;;;;;;;12.27;11.37;;;8.50;20.70;;;;;;6286721;22;20376;-78
2024/01/27 11:14:11;;;;;;;11.50;10.70;;;8.60;20.10;;;;;;6315412;22;20790;-80
2024/01/27 11:16:43;;;;;;;12.00;11.00;;;8.80;19.60;;;;;;6310728;22;20406;-79
2024/01/27 11:19:10;;;;;;;10.87;10.17;;;8.90;19.20;;;;;;6283859;22;20442;-79
2024/01/27 11:21:36;;;;;;;11.47;10.50;;;9.10;19.20;;;;;;6311756;22;20369;-80
2024/01/27 11:24:15;;;;;;;11.00;10.00;;;9.20;18.90;;;;;;6305810;22;20473;-76
2024/01/27 11:26:42;;;;;;;11.23;10.17;;;9.30;19.20;;;;;;6283040;22;20185;-80
2024/01/27 11:29:20;;;;;;;10.30;9.60;;;9.30;18.60;;;;;;6289266;22;20396;-77
2024/01/27 11:31:46;;;;;;;11.57;10.60;;;9.30;18.90;;;;;;6281936;22;20838;-78
2024/01/27 11:34:18;;;;;;;12.00;10.90;;;9.40;18.60;;;;;;6282755;22;20446;-79
2024/01/27 11:36:44;;;;;;;10.57;9.40;;;9.40;18.30;;;;;;6283743;22;20373;-77
2024/01/27 11:39:31;;;;;;;10.57;9.70;;;9.30;18.00;;;;;;6310197;22;20394;-79
2024/01/27 11:42:13;;;;;;;11.30;10.47;;;8.90;18.50;;;;;;6288030;22;20380;-78
2024/01/27 11:44:42;;;;;;;11.30;10.60;;;8.90;18.90;;;;;;6288213;22;20404;-79
2024/01/27 11:47:18;;;;;;;11.37;10.37;;;9.00;18.40;;;;;;6285864;22;20508;-79
2024/01/27 11:49:55;;;;;;;9.93;9.23;;;9.00;18.00;;;;;;6285324;22;20380;-79
2024/01/27 11:52:21;;;;;;;10.70;9.90;;;9.00;18.30;;;;;;6299848;22;20455;-76
2024/01/27 11:54:57;;;;;;;10.53;9.73;;;9.10;18.10;;;;;;6335434;22;20396;-76
2024/01/27 11:57:23;;;;;;;10.97;10.23;;;9.20;17.90;;;;;;6292365;22;20368;-79
2024/01/27 11:59:50;;;;;;;10.60;9.73;;;9.40;18.10;;;;;;6317628;22;20376;-79
2024/01/27 12:02:15;;;;;;;10.73;9.73;;;9.30;17.50;;;;;;6284384;22;20395;-77
2024/01/27 12:04:41;;;;;;;10.70;9.90;;;9.20;17.40;;;;;;6310261;22;20396;-79
2024/01/27 12:07:07;;;;;;;11.47;10.67;;;9.20;18.00;;;;;;6315975;22;20507;-79
2024/01/27 12:09:32;;;;;;;11.60;10.80;;;9.20;17.90;;;;;;6287976;22;20149;-78
2024/01/27 12:11:58;;;;;;;12.40;11.33;;;9.10;18.60;;;;;;6317640;22;20369;-78
2024/01/27 12:14:24;;;;;;;13.37;11.23;;;9.10;18.60;;;;;;6320227;22;20172;-78
2024/01/27 12:16:50;;;;;;;11.33;10.40;;;8.70;19.10;;;;;;6293197;22;20158;-78
2024/01/27 12:19:16;;;;;;;12.43;11.57;;;8.60;19.60;;;;;;6309097;22;20377;-77
2024/01/27 12:21:50;;;;;;;12.90;12.07;;;8.50;19.70;;;;;;6312490;22;20373;-77
2024/01/27 12:24:17;;;;;;;10.67;9.87;;;8.50;19.60;;;;;;6311075;22;20174;-78
2024/01/27 12:26:44;;;;;;;11.47;10.47;;;8.60;19.40;;;;;;6280116;22;20416;-75
2024/01/27 12:29:10;;;;;;;11.70;10.70;;;8.60;19.50;;;;;;6278054;22;20423;-76
2024/01/27 12:31:36;;;;;;;11.43;10.50;;;8.60;19.30;;;;;;6276404;22;20384;-78
2024/01/27 12:34:02;;;;;;;11.13;10.40;;;8.60;19.20;;;;;;6273364;22;20461;-77
2024/01/27 12:36:27;;;;;;;11.70;10.77;;;8.70;19.20;;;;;;6273486;22;20189;-79
2024/01/27 12:38:59;;;;;;;9.90;9.20;;;8.70;18.40;;;;;;6273651;22;20210;-78
2024/01/27 12:41:27;;;;;;;10.23;9.40;;;8.70;18.60;;;;;;6301382;22;20622;-79
2024/01/27 12:43:53;;;;;;;10.70;9.80;;;8.70;18.90;;;;;;6301338;22;20419;-79
2024/01/27 12:46:19;;;;;;;10.67;9.87;;;8.80;18.80;;;;;;6273009;22;21266;-79
2024/01/27 12:48:45;;;;;;;10.53;9.70;;;8.90;18.00;;;;;;6299910;22;20411;-79
2024/01/27 12:51:11;;;;;;;10.43;9.57;;;9.00;17.80;;;;;;6273762;22;20186;-80
2024/01/27 12:53:38;;;;;;;10.30;9.50;;;9.00;18.00;;;;;;6275608;22;20413;-80
2024/01/27 12:56:04;;;;;;;11.10;10.03;;;9.00;18.20;;;;;;6302138;22;20143;-79
2024/01/27 12:58:30;;;;;;;11.13;10.20;;;9.00;18.20;;;;;;6301523;22;20376;-79
2024/01/27 13:00:55;;;;;;;10.27;9.40;;;9.10;18.20;;;;;;6271978;22;20259;-78